Time;durP1;ratioP1;P1;durP2;ratioP2;P2;SDS_P1;SDS_P2;PMS_P1;PMS_P2;Temp;Humidity;BMP_temperature;BMP_pressure;BME280_temperature;BME280_humidity;BME280_pressure;Samples;Min_cycle;Max_cycle;Signal;HPM_P1;HPM_P2
2021/05/10 00:01:11;;;;;;;1.47;0.90;;;21.10;72.80;;;;;;4999594;28;20547;-77
2021/05/10 00:03:38;;;;;;;1.40;0.90;;;21.10;73.00;;;;;;5010337;28;21058;-77
2021/05/10 00:06:05;;;;;;;1.47;0.90;;;21.00;73.30;;;;;;5010962;28;20487;-77
2021/05/10 00:08:31;;;;;;;1.47;0.90;;;21.00;73.50;;;;;;5019029;28;20472;-76
2021/05/10 00:10:58;;;;;;;1.47;0.90;;;21.00;73.60;;;;;;4990754;28;20523;-75
2021/05/10 00:13:27;;;;;;;1.47;0.90;;;20.90;74.00;;;;;;5016408;28;20486;-77
2021/05/10 00:15:54;;;;;;;1.50;1.00;;;20.90;74.80;;;;;;5000897;28;20453;-76
2021/05/10 00:18:20;;;;;;;1.50;0.90;;;20.80;75.60;;;;;;5005961;28;20529;-77
2021/05/10 00:20:48;;;;;;;1.50;1.00;;;20.80;77.20;;;;;;5008267;28;20483;-77
2021/05/10 00:23:16;;;;;;;1.50;0.90;;;20.70;79.10;;;;;;5042223;28;20523;-77
2021/05/10 00:25:43;;;;;;;1.50;0.90;;;20.60;78.60;;;;;;5030000;28;20540;-77
2021/05/10 00:28:10;;;;;;;1.50;0.97;;;20.60;80.00;;;;;;5011565;28;20907;-78
2021/05/10 00:30:37;;;;;;;1.47;0.90;;;20.50;79.40;;;;;;5013709;28;20487;-76
2021/05/10 00:33:04;;;;;;;1.50;0.90;;;20.40;79.50;;;;;;5007595;28;20560;-76
2021/05/10 00:35:30;;;;;;;1.43;0.90;;;20.30;78.60;;;;;;5010609;28;20471;-74
2021/05/10 00:37:57;;;;;;;1.50;0.90;;;20.30;78.50;;;;;;5010029;28;20474;-77
2021/05/10 00:40:26;;;;;;;1.47;0.90;;;20.40;78.70;;;;;;5016175;28;20475;-77
2021/05/10 00:42:54;;;;;;;1.47;0.90;;;20.40;78.20;;;;;;5014155;28;20488;-76
2021/05/10 00:45:22;;;;;;;1.50;0.90;;;20.40;78.00;;;;;;5018831;28;20992;-75
2021/05/10 00:47:48;;;;;;;1.50;1.00;;;20.40;77.60;;;;;;5002890;28;20568;-76
2021/05/10 00:50:16;;;;;;;1.50;0.90;;;20.40;77.90;;;;;;5022532;28;20487;-76
2021/05/10 00:52:42;;;;;;;1.47;0.90;;;20.40;78.00;;;;;;5025539;28;21022;-75
2021/05/10 00:55:11;;;;;;;1.50;0.90;;;20.40;77.70;;;;;;5006247;28;20462;-76
2021/05/10 00:57:40;;;;;;;1.50;0.90;;;20.50;77.20;;;;;;5024136;28;20490;-77
2021/05/10 01:00:08;;;;;;;1.47;0.90;;;20.50;77.10;;;;;;5011886;28;21149;-77
2021/05/10 01:02:36;;;;;;;1.50;0.93;;;20.50;76.60;;;;;;5009447;28;20990;-77
2021/05/10 01:05:03;;;;;;;1.50;0.90;;;20.50;76.70;;;;;;5012670;28;20544;-76
2021/05/10 01:07:29;;;;;;;1.43;0.90;;;20.50;76.50;;;;;;5026295;28;20854;-77
2021/05/10 01:09:55;;;;;;;1.47;0.90;;;20.60;75.90;;;;;;5031089;28;20487;-77
2021/05/10 01:12:22;;;;;;;1.47;0.90;;;20.60;75.60;;;;;;5009587;28;20486;-78
2021/05/10 01:14:48;;;;;;;1.47;0.90;;;20.60;75.60;;;;;;5021241;28;20473;-78
2021/05/10 01:17:15;;;;;;;1.50;0.90;;;20.60;75.40;;;;;;5017724;28;20510;-78
2021/05/10 01:19:42;;;;;;;1.43;0.90;;;20.60;75.80;;;;;;5009164;28;20484;-77
2021/05/10 01:22:11;;;;;;;1.50;0.90;;;20.60;75.00;;;;;;5004557;28;20833;-76
2021/05/10 01:24:38;;;;;;;1.43;0.90;;;20.60;75.30;;;;;;5025770;28;20510;-77
2021/05/10 01:27:05;;;;;;;1.50;1.00;;;20.60;75.30;;;;;;5022326;28;20850;-75
2021/05/10 01:29:31;;;;;;;1.50;0.90;;;20.60;74.60;;;;;;5013337;28;20484;-75
2021/05/10 01:31:58;;;;;;;1.50;0.90;;;20.70;74.80;;;;;;5001988;28;20918;-76
2021/05/10 01:34:24;;;;;;;1.50;0.90;;;20.70;74.80;;;;;;5017595;28;20554;-76
2021/05/10 01:36:51;;;;;;;1.50;0.93;;;20.70;74.20;;;;;;5012323;28;20759;-77
2021/05/10 01:39:17;;;;;;;1.50;0.90;;;20.80;74.30;;;;;;5017251;28;20523;-76
2021/05/10 01:41:44;;;;;;;1.50;1.00;;;20.80;73.20;;;;;;5007671;28;21021;-77
2021/05/10 01:44:10;;;;;;;1.50;0.90;;;20.90;73.00;;;;;;5006303;28;20491;-77
2021/05/10 01:46:37;;;;;;;1.50;1.00;;;20.90;73.00;;;;;;5011481;28;20529;-78
2021/05/10 01:49:03;;;;;;;1.43;0.90;;;21.00;72.50;;;;;;5043084;28;20554;-82
2021/05/10 01:51:30;;;;;;;1.50;0.90;;;21.00;72.20;;;;;;5008635;28;20492;-77
2021/05/10 01:53:56;;;;;;;1.43;0.90;;;21.10;71.90;;;;;;5011780;28;20463;-80
2021/05/10 01:56:22;;;;;;;1.50;1.00;;;21.10;71.60;;;;;;5012713;28;20568;-78
2021/05/10 01:58:54;;;;;;;1.50;0.90;;;21.20;71.40;;;;;;5015514;28;20468;-77
2021/05/10 02:01:21;;;;;;;1.47;0.93;;;21.30;71.10;;;;;;5001876;28;20506;-77
2021/05/10 02:03:48;;;;;;;1.50;0.90;;;21.30;71.10;;;;;;5010836;28;20490;-77
2021/05/10 02:06:14;;;;;;;1.50;0.90;;;21.40;70.80;;;;;;5001488;28;20871;-76
2021/05/10 02:08:41;;;;;;;1.47;0.90;;;21.40;70.60;;;;;;5019105;28;20474;-77
2021/05/10 02:11:07;;;;;;;1.43;0.90;;;21.40;70.90;;;;;;5015941;28;20495;-76
2021/05/10 02:13:33;;;;;;;1.43;0.90;;;21.40;71.00;;;;;;5037244;28;20467;-76
2021/05/10 02:16:02;;;;;;;1.50;0.90;;;21.40;71.20;;;;;;5005037;28;20542;-78
2021/05/10 02:18:31;;;;;;;1.47;0.90;;;21.40;71.40;;;;;;5019059;28;20459;-80
2021/05/10 02:20:57;;;;;;;1.50;0.90;;;21.30;71.70;;;;;;5009154;28;21079;-78
2021/05/10 02:23:26;;;;;;;1.50;0.90;;;21.30;71.50;;;;;;5017760;28;20460;-79
2021/05/10 02:25:54;;;;;;;1.50;0.90;;;21.30;71.50;;;;;;5001247;28;20479;-76
2021/05/10 02:28:23;;;;;;;1.47;0.90;;;21.20;71.90;;;;;;5014674;28;20467;-77
2021/05/10 02:30:51;;;;;;;1.63;1.17;;;21.20;71.90;;;;;;5020795;28;20486;-78
2021/05/10 02:33:20;;;;;;;1.50;1.00;;;21.20;72.10;;;;;;5013996;28;20464;-79
2021/05/10 02:35:48;;;;;;;1.43;0.90;;;21.10;72.20;;;;;;5015243;28;20511;-78
2021/05/10 02:38:16;;;;;;;2.93;2.73;;;21.10;72.40;;;;;;5044420;28;20474;-79
2021/05/10 02:40:43;;;;;;;1.47;0.90;;;21.10;72.40;;;;;;5022113;28;20487;-79
2021/05/10 02:43:09;;;;;;;1.50;0.90;;;21.00;72.50;;;;;;5020711;28;20483;-79
2021/05/10 02:45:35;;;;;;;1.43;0.90;;;21.00;72.80;;;;;;5016722;28;20522;-77
2021/05/10 02:48:02;;;;;;;1.50;1.00;;;20.90;73.00;;;;;;5003552;28;20534;-78
2021/05/10 02:50:29;;;;;;;1.50;0.90;;;20.90;73.00;;;;;;5010911;28;20499;-79
2021/05/10 02:52:55;;;;;;;1.43;0.90;;;20.80;73.30;;;;;;4999842;28;20563;-77
2021/05/10 02:55:22;;;;;;;1.50;0.90;;;20.80;73.20;;;;;;5025928;28;20467;-77
2021/05/10 02:57:49;;;;;;;1.50;1.00;;;20.80;73.40;;;;;;5012458;28;20487;-77
2021/05/10 03:00:20;;;;;;;1.50;0.90;;;20.70;73.80;;;;;;5009970;28;20492;-79
2021/05/10 03:02:46;;;;;;;1.47;0.90;;;20.70;73.70;;;;;;5013930;28;20478;-76
2021/05/10 03:05:14;;;;;;;1.47;0.90;;;20.70;73.80;;;;;;5025994;28;20492;-80
2021/05/10 03:07:42;;;;;;;1.50;0.97;;;20.60;74.00;;;;;;5006151;28;20961;-77
2021/05/10 03:10:11;;;;;;;1.50;0.90;;;20.60;74.10;;;;;;5013229;28;20578;-78
2021/05/10 03:12:38;;;;;;;1.47;0.90;;;20.60;74.30;;;;;;5010669;28;20495;-81
2021/05/10 03:15:06;;;;;;;1.47;0.90;;;20.50;74.20;;;;;;5015982;28;20460;-77
2021/05/10 03:17:32;;;;;;;1.50;0.90;;;20.50;74.10;;;;;;5021345;28;20511;-78
2021/05/10 03:19:58;;;;;;;1.50;0.97;;;20.40;74.20;;;;;;5010148;28;21001;-76
2021/05/10 03:22:25;;;;;;;1.50;1.00;;;20.40;74.50;;;;;;5025456;28;21024;-77
2021/05/10 03:24:52;;;;;;;1.47;0.90;;;20.40;74.70;;;;;;5017625;28;20488;-77
2021/05/10 03:27:18;;;;;;;1.50;1.10;;;20.30;74.90;;;;;;5005141;28;20495;-79
2021/05/10 03:29:45;;;;;;;1.50;0.90;;;20.20;75.00;;;;;;5018139;28;20483;-78
2021/05/10 03:32:11;;;;;;;1.50;1.00;;;20.20;75.10;;;;;;5031653;28;20493;-78
2021/05/10 03:34:37;;;;;;;1.50;0.93;;;20.20;75.50;;;;;;5022675;28;20459;-78
2021/05/10 03:37:03;;;;;;;1.47;0.90;;;20.10;75.50;;;;;;5015388;28;20491;-78
2021/05/10 03:39:30;;;;;;;1.50;1.00;;;20.10;75.60;;;;;;5018662;28;20597;-78
2021/05/10 03:41:57;;;;;;;1.47;0.90;;;20.10;75.60;;;;;;5012561;28;20487;-77
2021/05/10 03:44:23;;;;;;;1.47;0.90;;;20.10;75.60;;;;;;5020687;28;20554;-77
2021/05/10 03:46:49;;;;;;;1.50;0.90;;;20.10;75.60;;;;;;5013473;28;20510;-80
2021/05/10 03:49:16;;;;;;;1.43;0.90;;;20.10;75.50;;;;;;5030984;28;20477;-79
2021/05/10 03:51:42;;;;;;;1.43;0.90;;;20.10;75.50;;;;;;5008860;28;20492;-79
2021/05/10 03:54:08;;;;;;;1.50;0.90;;;20.10;75.40;;;;;;5011961;28;20537;-79
2021/05/10 03:56:35;;;;;;;1.47;0.90;;;20.10;75.20;;;;;;5009698;28;20486;-76
2021/05/10 03:59:02;;;;;;;1.50;0.90;;;20.10;75.20;;;;;;5016845;28;20732;-76
2021/05/10 04:01:28;;;;;;;1.47;0.90;;;20.10;74.90;;;;;;5003361;28;20471;-76
2021/05/10 04:04:02;;;;;;;1.47;0.90;;;20.20;75.30;;;;;;5036059;28;20476;-76
2021/05/10 04:09:35;;;;;;;1.43;0.90;;;20.20;75.40;;;;;;4938091;29;20471;-78
2021/05/10 04:14:47;;;;;;;1.47;0.90;;;20.20;75.40;;;;;;5012151;28;20446;-77
2021/05/10 04:17:13;;;;;;;1.50;1.00;;;20.20;75.30;;;;;;5013059;28;20476;-75
2021/05/10 04:19:40;;;;;;;1.43;0.90;;;20.20;75.30;;;;;;5022461;28;20484;-79
2021/05/10 04:22:06;;;;;;;1.43;0.90;;;20.30;75.30;;;;;;5004293;28;20487;-79
2021/05/10 04:24:32;;;;;;;1.50;1.00;;;20.30;75.40;;;;;;5021157;28;20463;-78
2021/05/10 04:27:01;;;;;;;1.47;0.90;;;20.30;75.30;;;;;;5020727;28;20488;-78
2021/05/10 04:29:27;;;;;;;1.47;0.90;;;20.40;75.30;;;;;;5012640;28;20484;-81
2021/05/10 04:31:54;;;;;;;1.50;0.90;;;20.40;75.60;;;;;;5009184;28;20850;-79
2021/05/10 04:34:21;;;;;;;1.50;0.90;;;20.40;75.50;;;;;;5014106;28;20468;-78
2021/05/10 04:36:47;;;;;;;1.47;0.90;;;20.40;75.70;;;;;;5002254;28;20484;-78
2021/05/10 04:39:13;;;;;;;1.50;0.90;;;20.40;75.70;;;;;;5020448;28;20467;-80
2021/05/10 04:41:39;;;;;;;1.43;0.90;;;20.40;75.50;;;;;;5001658;28;20480;-81
2021/05/10 04:44:06;;;;;;;1.50;0.90;;;20.40;75.70;;;;;;5020714;28;20989;-82
2021/05/10 04:46:33;;;;;;;1.47;0.90;;;20.40;75.60;;;;;;4999532;28;20472;-78
2021/05/10 04:49:00;;;;;;;1.50;1.00;;;20.40;75.50;;;;;;5027223;28;20463;-79
2021/05/10 04:51:26;;;;;;;1.47;0.90;;;20.40;75.60;;;;;;5021033;28;20877;-77
2021/05/10 04:53:52;;;;;;;1.50;1.00;;;20.40;75.60;;;;;;5041251;28;20606;-80
2021/05/10 04:56:19;;;;;;;1.50;1.00;;;20.40;75.70;;;;;;5006783;28;20569;-78
2021/05/10 04:58:45;;;;;;;1.50;0.93;;;20.40;75.70;;;;;;5023526;28;20464;-77
2021/05/10 05:01:11;;;;;;;1.50;1.00;;;20.40;75.70;;;;;;5017489;28;20486;-79
2021/05/10 05:03:37;;;;;;;1.47;0.90;;;20.40;75.90;;;;;;5041448;28;20985;-81
2021/05/10 05:06:06;;;;;;;1.40;0.90;;;20.40;75.60;;;;;;5008303;28;20479;-80
2021/05/10 05:08:32;;;;;;;1.43;0.90;;;20.40;75.70;;;;;;5017407;28;20969;-79
2021/05/10 05:10:58;;;;;;;1.50;1.00;;;20.40;75.70;;;;;;5013673;28;20488;-81
2021/05/10 05:13:26;;;;;;;1.50;1.00;;;20.40;75.90;;;;;;5026105;28;20518;-78
2021/05/10 05:15:53;;;;;;;1.47;0.90;;;20.40;75.70;;;;;;5006056;28;20464;-77
2021/05/10 05:18:19;;;;;;;1.43;1.00;;;20.40;75.80;;;;;;5025878;28;20491;-80
2021/05/10 05:20:45;;;;;;;1.43;0.90;;;20.40;75.80;;;;;;5032423;28;20489;-80
2021/05/10 05:23:20;;;;;;;1.50;1.10;;;20.40;76.00;;;;;;5030186;28;20848;-79
2021/05/10 05:25:46;;;;;;;1.43;0.90;;;20.40;76.10;;;;;;5009033;28;20821;-80
2021/05/10 05:28:13;;;;;;;1.43;0.90;;;20.40;76.00;;;;;;5018292;28;20473;-78
2021/05/10 05:30:39;;;;;;;1.60;1.33;;;20.40;76.50;;;;;;5019371;28;20857;-80
2021/05/10 05:33:05;;;;;;;1.50;0.90;;;20.40;76.50;;;;;;5025509;28;20598;-81
2021/05/10 05:35:32;;;;;;;1.50;0.90;;;20.30;76.70;;;;;;5015178;28;20468;-80
2021/05/10 05:37:58;;;;;;;1.47;0.90;;;20.30;76.90;;;;;;5011998;28;20510;-76
2021/05/10 05:40:25;;;;;;;1.43;0.90;;;20.30;77.00;;;;;;5016829;28;20483;-79
2021/05/10 05:42:52;;;;;;;1.50;1.03;;;20.30;77.00;;;;;;5017229;28;20483;-81
2021/05/10 05:45:18;;;;;;;1.50;0.90;;;20.20;77.30;;;;;;5021836;28;20545;-80
2021/05/10 05:47:45;;;;;;;1.50;0.90;;;20.20;77.30;;;;;;5013288;28;20487;-80
2021/05/10 05:50:11;;;;;;;1.43;0.90;;;20.20;77.40;;;;;;5015288;28;20667;-79
2021/05/10 05:52:38;;;;;;;1.43;0.90;;;20.20;77.60;;;;;;5011551;28;20542;-80
2021/05/10 05:55:05;;;;;;;1.43;0.90;;;20.20;77.60;;;;;;5014824;28;20463;-80
2021/05/10 05:57:33;;;;;;;1.47;0.90;;;20.20;77.70;;;;;;5018919;28;20480;-79
2021/05/10 06:00:01;;;;;;;1.43;0.90;;;20.20;78.10;;;;;;5012873;28;20582;-80
2021/05/10 06:02:28;;;;;;;1.47;0.90;;;20.20;78.80;;;;;;4999017;28;20483;-78
2021/05/10 06:04:54;;;;;;;1.50;1.00;;;20.20;78.70;;;;;;5016057;28;20555;-77
2021/05/10 06:07:21;;;;;;;1.47;0.90;;;20.10;78.80;;;;;;5019070;28;20606;-78
2021/05/10 06:09:48;;;;;;;1.47;0.90;;;20.10;78.90;;;;;;5014294;28;20484;-80
2021/05/10 06:12:14;;;;;;;1.50;1.00;;;20.10;79.10;;;;;;5005023;28;20485;-77
2021/05/10 06:14:41;;;;;;;1.50;0.90;;;20.10;79.10;;;;;;5015044;28;20468;-79
2021/05/10 06:17:09;;;;;;;1.40;0.90;;;20.00;79.10;;;;;;5010251;28;20519;-76
2021/05/10 06:19:35;;;;;;;1.50;0.90;;;20.00;79.30;;;;;;4991537;28;20573;-80
2021/05/10 06:22:02;;;;;;;1.50;0.97;;;20.00;79.40;;;;;;4985913;28;20510;-78
2021/05/10 06:24:28;;;;;;;1.47;0.90;;;20.00;79.60;;;;;;5005950;28;20460;-79
2021/05/10 06:26:54;;;;;;;1.50;0.90;;;20.00;79.80;;;;;;4982818;28;20646;-78
2021/05/10 06:29:21;;;;;;;1.40;0.90;;;20.00;79.70;;;;;;4990306;28;20862;-77
2021/05/10 06:31:48;;;;;;;1.43;0.90;;;20.00;79.70;;;;;;4977562;28;20514;-78
2021/05/10 06:34:14;;;;;;;1.40;0.90;;;20.00;79.70;;;;;;4989701;28;20490;-80
2021/05/10 06:36:41;;;;;;;1.47;0.90;;;20.00;79.60;;;;;;4979758;28;20516;-80
2021/05/10 06:39:07;;;;;;;1.43;0.90;;;20.10;79.70;;;;;;4993099;28;20564;-78
2021/05/10 06:41:33;;;;;;;1.43;0.90;;;20.10;79.60;;;;;;4980712;28;20493;-81
2021/05/10 06:43:59;;;;;;;1.47;0.90;;;20.20;79.40;;;;;;4989139;28;20465;-80
2021/05/10 06:46:26;;;;;;;1.47;0.90;;;20.30;79.40;;;;;;4982667;28;20499;-81
2021/05/10 06:48:53;;;;;;;1.50;0.90;;;20.30;79.20;;;;;;4995650;28;20488;-76
2021/05/10 06:51:19;;;;;;;1.47;0.90;;;20.40;79.20;;;;;;4974771;28;20613;-78
2021/05/10 06:53:45;;;;;;;1.47;0.90;;;20.70;79.50;;;;;;4987108;28;20465;-78
2021/05/10 06:56:12;;;;;;;1.50;0.90;;;21.10;78.60;;;;;;4980001;28;20852;-78
2021/05/10 06:58:39;;;;;;;1.50;0.90;;;21.50;77.70;;;;;;4992503;28;20604;-78
2021/05/10 07:01:05;;;;;;;1.50;0.90;;;21.70;76.30;;;;;;4975927;28;20779;-78
2021/05/10 07:03:31;;;;;;;1.43;0.90;;;21.70;75.90;;;;;;5005926;28;20492;-76
2021/05/10 07:05:59;;;;;;;1.50;0.90;;;21.60;76.40;;;;;;4979999;28;20488;-78
2021/05/10 07:08:25;;;;;;;1.50;1.00;;;21.60;76.70;;;;;;5002867;28;20483;-77
2021/05/10 07:10:53;;;;;;;1.50;0.90;;;21.80;76.60;;;;;;4974230;28;20492;-79
2021/05/10 07:13:21;;;;;;;1.47;0.90;;;22.00;76.60;;;;;;4984602;28;21008;-77
2021/05/10 07:15:48;;;;;;;1.47;0.90;;;22.40;75.20;;;;;;4981974;28;20465;-77
2021/05/10 07:18:15;;;;;;;1.50;1.00;;;22.60;74.10;;;;;;4982630;28;20472;-78
2021/05/10 07:20:43;;;;;;;1.50;0.90;;;22.80;74.80;;;;;;4992882;28;20500;-79
2021/05/10 07:23:12;;;;;;;1.50;0.90;;;23.10;73.90;;;;;;4982062;28;20490;-77
2021/05/10 07:25:41;;;;;;;1.40;0.90;;;23.30;72.60;;;;;;4988507;28;20495;-77
2021/05/10 07:28:08;;;;;;;1.47;0.90;;;23.40;72.40;;;;;;4976878;28;20940;-78
2021/05/10 07:30:34;;;;;;;1.40;0.90;;;23.50;72.00;;;;;;4990604;28;20492;-78
2021/05/10 07:33:01;;;;;;;1.50;0.90;;;23.40;71.90;;;;;;4976708;28;20548;-80
2021/05/10 07:35:27;;;;;;;1.50;0.90;;;23.30;71.90;;;;;;4989305;28;20461;-78
2021/05/10 07:37:53;;;;;;;1.50;0.90;;;23.10;71.80;;;;;;4973940;28;20556;-79
2021/05/10 07:40:23;;;;;;;1.47;0.90;;;22.90;71.40;;;;;;4992392;28;20500;-76
2021/05/10 07:42:49;;;;;;;1.50;0.90;;;22.70;71.20;;;;;;4974146;28;20492;-77
2021/05/10 07:45:16;;;;;;;1.50;0.90;;;22.50;71.60;;;;;;4995032;28;20488;-77
2021/05/10 07:47:43;;;;;;;1.47;0.90;;;22.30;71.90;;;;;;4982793;28;20488;-79
2021/05/10 07:50:10;;;;;;;1.80;1.50;;;22.20;72.60;;;;;;4984770;28;20515;-79
2021/05/10 07:52:36;;;;;;;1.50;0.90;;;22.10;72.90;;;;;;4982109;28;20534;-80
2021/05/10 07:55:04;;;;;;;1.50;1.00;;;22.10;73.00;;;;;;4998384;28;20468;-76
2021/05/10 07:57:31;;;;;;;1.50;0.90;;;22.00;73.40;;;;;;4981832;28;20971;-77
2021/05/10 07:59:57;;;;;;;1.50;0.90;;;21.90;73.70;;;;;;4987789;28;20499;-77
2021/05/10 08:02:24;;;;;;;1.50;0.90;;;21.80;74.10;;;;;;4977613;28;20499;-75
2021/05/10 08:04:51;;;;;;;1.50;1.00;;;21.70;73.90;;;;;;4982765;28;21097;-77
2021/05/10 08:07:17;;;;;;;1.47;0.90;;;21.60;74.30;;;;;;4989620;28;20512;-76
2021/05/10 08:09:44;;;;;;;1.47;0.90;;;21.50;74.40;;;;;;4995395;28;20674;-75
2021/05/10 08:12:12;;;;;;;1.50;0.90;;;21.50;74.70;;;;;;4985176;28;20497;-77
2021/05/10 08:14:39;;;;;;;1.50;0.90;;;21.50;75.10;;;;;;4997114;28;20465;-78
2021/05/10 08:17:05;;;;;;;1.50;1.00;;;21.40;75.40;;;;;;4982094;28;20496;-77
2021/05/10 08:19:32;;;;;;;1.50;0.90;;;21.40;75.90;;;;;;4991086;28;20691;-77
2021/05/10 08:21:58;;;;;;;1.47;0.90;;;21.30;75.90;;;;;;4995434;28;21003;-79
2021/05/10 08:24:25;;;;;;;1.47;0.90;;;21.30;76.20;;;;;;4993811;28;21047;-78
2021/05/10 08:26:51;;;;;;;1.50;0.90;;;21.30;76.20;;;;;;4972452;28;20490;-79
2021/05/10 08:29:17;;;;;;;1.47;0.90;;;21.20;76.30;;;;;;4993515;28;20473;-77
2021/05/10 08:31:45;;;;;;;1.50;0.90;;;21.10;76.30;;;;;;4993133;28;20485;-78
2021/05/10 08:34:12;;;;;;;1.50;0.90;;;21.00;77.00;;;;;;4995031;28;20461;-79
2021/05/10 08:36:38;;;;;;;1.50;1.00;;;20.80;76.80;;;;;;4980708;28;21153;-79
2021/05/10 08:39:07;;;;;;;1.47;0.93;;;20.70;77.00;;;;;;4995029;28;20473;-79
2021/05/10 08:41:34;;;;;;;1.47;0.90;;;20.60;77.30;;;;;;4984153;28;20495;-79
2021/05/10 08:44:03;;;;;;;1.50;0.90;;;20.50;77.50;;;;;;4999535;28;20466;-77
2021/05/10 08:46:30;;;;;;;1.50;0.97;;;20.40;77.50;;;;;;4974792;28;20490;-76
2021/05/10 08:48:57;;;;;;;1.50;0.90;;;20.40;77.60;;;;;;4982779;28;20469;-76
2021/05/10 08:51:24;;;;;;;1.50;0.90;;;20.30;77.80;;;;;;4981767;28;20563;-78
2021/05/10 08:53:50;;;;;;;1.50;0.93;;;20.30;77.60;;;;;;4982515;28;20485;-76
2021/05/10 08:56:17;;;;;;;1.47;0.90;;;20.30;77.60;;;;;;4979054;28;20481;-77
2021/05/10 08:58:45;;;;;;;1.47;0.90;;;20.40;77.60;;;;;;4993744;28;20508;-78
2021/05/10 09:01:12;;;;;;;1.50;1.10;;;20.50;77.30;;;;;;4984612;28;20491;-79
2021/05/10 09:03:41;;;;;;;1.47;0.90;;;20.70;77.40;;;;;;4996159;28;21131;-76
2021/05/10 09:06:12;;;;;;;1.47;0.90;;;20.80;76.90;;;;;;4984323;28;20486;-78
2021/05/10 09:08:40;;;;;;;1.50;0.90;;;20.90;76.50;;;;;;5003958;28;20987;-79
2021/05/10 09:11:12;;;;;;;1.50;0.90;;;20.90;76.10;;;;;;4982019;28;20516;-75
2021/05/10 09:13:40;;;;;;;1.50;0.90;;;20.90;75.30;;;;;;4996012;28;20461;-78
2021/05/10 09:16:07;;;;;;;1.47;0.90;;;20.90;75.20;;;;;;4981027;28;20557;-81
2021/05/10 09:18:34;;;;;;;1.50;1.00;;;21.00;75.30;;;;;;5001295;28;21060;-79
2021/05/10 09:21:15;;;;;;;1.50;0.90;;;21.00;75.30;;;;;;4989133;28;20487;-77
2021/05/10 09:23:42;;;;;;;1.50;0.90;;;21.10;75.30;;;;;;4994782;28;20465;-79
2021/05/10 09:26:11;;;;;;;1.50;0.90;;;21.10;75.20;;;;;;4988867;28;20807;-79
2021/05/10 09:28:39;;;;;;;1.50;0.90;;;21.10;74.80;;;;;;4999377;28;20488;-80
2021/05/10 09:31:08;;;;;;;1.47;0.90;;;21.20;74.90;;;;;;4991276;28;20493;-78
2021/05/10 09:33:35;;;;;;;1.50;0.90;;;21.30;75.10;;;;;;5013650;28;20471;-79
2021/05/10 09:36:06;;;;;;;1.47;0.90;;;21.40;74.80;;;;;;4989456;28;20471;-78
2021/05/10 09:38:35;;;;;;;1.50;0.90;;;21.40;74.80;;;;;;4988427;28;20958;-77
2021/05/10 09:41:03;;;;;;;1.50;0.90;;;21.50;74.70;;;;;;4988941;28;20520;-79
2021/05/10 09:43:33;;;;;;;1.50;1.00;;;21.50;74.70;;;;;;5001618;28;20468;-80
2021/05/10 09:46:03;;;;;;;1.50;0.90;;;21.50;74.80;;;;;;4984954;28;20481;-79
2021/05/10 09:48:33;;;;;;;1.50;0.90;;;21.50;75.00;;;;;;4999268;28;20511;-78
2021/05/10 09:51:02;;;;;;;1.47;0.90;;;21.50;75.10;;;;;;4995549;28;20836;-80
2021/05/10 09:53:40;;;;;;;1.50;0.90;;;21.50;75.10;;;;;;5012281;28;20848;-76
2021/05/10 09:56:09;;;;;;;1.50;0.90;;;21.60;75.10;;;;;;5005802;28;20516;-80
2021/05/10 09:58:44;;;;;;;1.50;0.90;;;21.50;75.30;;;;;;5022551;28;20973;-77
2021/05/10 10:01:10;;;;;;;1.40;0.90;;;21.50;75.00;;;;;;5003541;28;20964;-75
2021/05/10 10:03:39;;;;;;;1.47;0.90;;;21.60;74.90;;;;;;5007592;28;20491;-75
2021/05/10 10:06:11;;;;;;;1.47;0.90;;;21.50;74.80;;;;;;5000184;28;20456;-76
2021/05/10 10:08:39;;;;;;;1.50;0.90;;;21.50;75.10;;;;;;5017683;28;20862;-76
2021/05/10 10:11:08;;;;;;;1.43;0.90;;;21.40;74.90;;;;;;5011609;28;20476;-80
2021/05/10 10:13:34;;;;;;;1.50;0.90;;;21.20;75.20;;;;;;5023610;28;20476;-79
2021/05/10 10:16:04;;;;;;;1.50;0.90;;;21.10;74.90;;;;;;5004400;28;20467;-78
2021/05/10 10:18:31;;;;;;;1.50;0.90;;;20.90;75.50;;;;;;5038599;28;20966;-78
2021/05/10 10:20:59;;;;;;;1.47;0.90;;;20.90;75.90;;;;;;5020412;28;20539;-80
2021/05/10 10:23:27;;;;;;;1.47;0.90;;;20.80;76.70;;;;;;5025383;28;20497;-78
2021/05/10 10:25:56;;;;;;;1.50;1.00;;;20.80;76.70;;;;;;5007384;28;20510;-78
2021/05/10 10:28:23;;;;;;;1.47;0.90;;;20.80;76.50;;;;;;5029467;28;20476;-79
2021/05/10 10:30:58;;;;;;;1.50;0.90;;;20.80;76.60;;;;;;4998864;28;20487;-78
2021/05/10 10:33:29;;;;;;;1.50;0.90;;;20.90;76.70;;;;;;5010460;28;20891;-81
2021/05/10 10:35:56;;;;;;;1.43;0.90;;;21.00;76.30;;;;;;4999292;28;20456;-78
2021/05/10 10:38:31;;;;;;;1.43;0.90;;;21.10;76.50;;;;;;5013197;28;20600;-76
2021/05/10 10:41:21;;;;;;;1.47;0.90;;;21.20;76.10;;;;;;5003445;28;20491;-76
2021/05/10 10:43:48;;;;;;;1.47;0.90;;;21.30;75.90;;;;;;5018158;28;20463;-78
2021/05/10 10:46:29;;;;;;;1.50;0.93;;;21.30;75.50;;;;;;5010250;28;20583;-81
2021/05/10 10:48:58;;;;;;;1.47;0.90;;;21.40;75.20;;;;;;5017301;28;20464;-79
2021/05/10 10:51:25;;;;;;;1.50;1.00;;;21.40;75.20;;;;;;5001117;28;20483;-78
2021/05/10 10:53:54;;;;;;;1.47;0.90;;;21.50;75.40;;;;;;5019710;28;20861;-78
2021/05/10 10:56:48;;;;;;;1.50;0.90;;;21.60;75.10;;;;;;4996038;28;20483;-78
2021/05/10 10:59:30;;;;;;;1.50;0.87;;;21.80;74.70;;;;;;4994374;28;619664;-77
2021/05/10 11:01:57;;;;;;;1.50;1.10;;;22.00;74.70;;;;;;5006147;28;20981;-77
2021/05/10 11:04:28;;;;;;;1.43;0.90;;;22.20;75.00;;;;;;5007120;28;20476;-76
2021/05/10 11:06:55;;;;;;;1.50;0.90;;;22.40;74.90;;;;;;4999858;28;21041;-77
2021/05/10 11:09:50;;;;;;;1.50;0.90;;;22.50;74.90;;;;;;5014253;28;20483;-78
2021/05/10 11:12:49;;;;;;;1.50;0.90;;;22.80;74.70;;;;;;5007578;28;20478;-78
2021/05/10 11:15:46;;;;;;;1.50;0.90;;;22.80;72.50;;;;;;5004399;28;20940;-76
2021/05/10 11:18:36;;;;;;;1.50;0.90;;;22.90;72.50;;;;;;4993826;28;20480;-76
2021/05/10 11:21:05;;;;;;;1.50;0.90;;;22.90;72.60;;;;;;5002490;28;20534;-75
2021/05/10 11:23:32;;;;;;;1.40;0.90;;;22.90;72.10;;;;;;5020496;28;20570;-77
2021/05/10 11:26:01;;;;;;;1.40;0.90;;;22.90;71.80;;;;;;5015029;28;20490;-78
2021/05/10 11:28:47;;;;;;;1.50;0.90;;;23.00;71.70;;;;;;5026878;28;20465;-78
2021/05/10 11:31:16;;;;;;;1.50;0.90;;;23.10;71.40;;;;;;4999897;28;20487;-76
2021/05/10 11:34:16;;;;;;;1.43;0.90;;;23.30;71.70;;;;;;5012875;28;20583;-76
2021/05/10 11:36:50;;;;;;;1.50;0.90;;;23.40;70.10;;;;;;5005213;28;20496;-80
2021/05/10 11:39:27;;;;;;;1.50;0.90;;;23.40;69.60;;;;;;5014779;28;20480;-77
2021/05/10 11:41:58;;;;;;;1.50;0.90;;;23.30;70.10;;;;;;5006895;28;20557;-76
2021/05/10 11:44:27;;;;;;;1.47;0.90;;;23.10;69.80;;;;;;5027443;28;20780;-78
2021/05/10 11:46:55;;;;;;;1.40;0.90;;;23.00;69.90;;;;;;5019805;28;20478;-78
2021/05/10 11:49:28;;;;;;;1.40;0.90;;;22.80;70.50;;;;;;5008623;28;20550;-78
2021/05/10 11:51:57;;;;;;;1.47;0.90;;;22.80;70.60;;;;;;5011165;28;20493;-78
2021/05/10 11:54:25;;;;;;;1.40;0.90;;;22.60;71.10;;;;;;5018898;28;20918;-78
2021/05/10 11:56:52;;;;;;;1.47;0.80;;;22.50;71.40;;;;;;5010758;28;20498;-76
2021/05/10 11:59:28;;;;;;;1.40;0.90;;;22.40;71.60;;;;;;5003424;28;20499;-74
2021/05/10 12:01:55;;;;;;;1.47;0.90;;;22.40;72.10;;;;;;4994873;28;20514;-79
2021/05/10 12:04:24;;;;;;;1.50;0.90;;;22.40;72.60;;;;;;5013043;28;20480;-77
2021/05/10 12:06:50;;;;;;;1.50;0.90;;;22.50;72.00;;;;;;5010263;28;20484;-76
2021/05/10 12:09:52;;;;;;;1.43;0.90;;;22.50;72.20;;;;;;5008608;28;20564;-75
2021/05/10 12:12:37;;;;;;;1.50;0.97;;;22.60;72.80;;;;;;4925977;28;20503;-77
2021/05/10 12:15:17;;;;;;;1.47;0.90;;;22.60;72.10;;;;;;4939524;29;20562;-78
2021/05/10 12:17:45;;;;;;;1.50;0.90;;;22.70;72.40;;;;;;4970757;28;20510;-79
2021/05/10 12:20:14;;;;;;;1.50;0.90;;;22.30;73.80;;;;;;4990477;28;20942;-78
2021/05/10 12:22:42;;;;;;;1.50;1.00;;;21.90;75.30;;;;;;5002976;28;20486;-76
2021/05/10 12:25:20;;;;;;;1.50;0.90;;;21.40;76.30;;;;;;4977575;28;20472;-79
2021/05/10 12:27:50;;;;;;;1.47;0.90;;;21.00;77.20;;;;;;5000809;28;20565;-77
2021/05/10 12:30:23;;;;;;;1.50;1.00;;;20.70;77.70;;;;;;4981621;28;20493;-80
2021/05/10 12:32:52;;;;;;;1.50;0.90;;;20.60;77.80;;;;;;5002894;28;20474;-79
2021/05/10 12:35:22;;;;;;;1.50;1.00;;;20.70;77.80;;;;;;4986045;28;20472;-77
2021/05/10 12:37:50;;;;;;;1.47;0.90;;;20.70;77.20;;;;;;4982667;28;20496;-80
2021/05/10 12:40:19;;;;;;;1.50;1.00;;;20.70;77.00;;;;;;4985554;28;20487;-81
2021/05/10 12:43:01;;;;;;;1.50;0.90;;;20.80;76.90;;;;;;4977243;28;20472;-79
2021/05/10 12:45:27;;;;;;;1.50;1.00;;;20.80;76.40;;;;;;4979544;28;20525;-79
2021/05/10 12:47:56;;;;;;;1.50;1.00;;;20.70;76.40;;;;;;4972135;28;20482;-81
2021/05/10 12:50:36;;;;;;;1.47;0.90;;;20.80;76.20;;;;;;4985681;28;20492;-79
2021/05/10 12:53:03;;;;;;;1.50;0.90;;;20.80;76.20;;;;;;4984343;28;20539;-79
2021/05/10 12:55:30;;;;;;;1.50;0.90;;;20.80;75.60;;;;;;4983173;28;20468;-80
2021/05/10 12:57:57;;;;;;;1.50;0.90;;;20.80;76.00;;;;;;4989483;28;20565;-79
2021/05/10 13:00:34;;;;;;;1.47;0.90;;;20.70;76.00;;;;;;4992779;28;20518;-75